createdAt,value
2023-10-08T00:01:23.238Z,101709.22
2023-10-08T00:03:52.925Z,101699.50
2023-10-08T00:06:25.590Z,101706.09
2023-10-08T00:09:01.878Z,101710.34
2023-10-08T00:11:33.917Z,101720.34
2023-10-08T00:14:02.976Z,101708.53
2023-10-08T00:16:31.206Z,101700.41
2023-10-08T00:19:04.865Z,101701.84
2023-10-08T00:21:35.497Z,101701.38
2023-10-08T00:24:08.114Z,101695.97
2023-10-08T00:26:41.961Z,101703.31
2023-10-08T00:29:23.705Z,101699.94
2023-10-08T00:31:52.560Z,101701.06
2023-10-08T00:34:21.817Z,101695.97
2023-10-08T00:36:51.258Z,101689.09
2023-10-08T00:39:36.031Z,101693.56
2023-10-08T00:42:06.801Z,101685.78
2023-10-08T00:44:53.149Z,101680.06
2023-10-08T00:47:28.057Z,101676.28
2023-10-08T00:50:06.274Z,101692.53
2023-10-08T00:52:42.019Z,101685.84
2023-10-08T00:55:12.666Z,101690.56
2023-10-08T00:57:44.577Z,101692.44
2023-10-08T01:00:18.781Z,101699.84
2023-10-08T01:02:48.309Z,101681.75
2023-10-08T01:05:26.298Z,101674.91
2023-10-08T01:07:57.681Z,101677.84
2023-10-08T01:10:26.619Z,101682.81
2023-10-08T01:12:57.524Z,101678.81
2023-10-08T01:15:30.394Z,101674.13
2023-10-08T01:18:02.673Z,101676.03
2023-10-08T01:20:51.219Z,101666.22
2023-10-08T01:23:23.928Z,101670.25
2023-10-08T01:26:12.172Z,101671.88
2023-10-08T01:28:42.106Z,101661.72
2023-10-08T01:31:14.506Z,101665.44
2023-10-08T01:33:49.280Z,101669.44
2023-10-08T01:36:17.875Z,101664.06
2023-10-08T01:38:50.460Z,101665.09
2023-10-08T01:41:32.313Z,101672.78
2023-10-08T01:44:00.823Z,101673.78
2023-10-08T01:46:29.583Z,101673.69
2023-10-08T01:49:06.313Z,101675.03
2023-10-08T01:51:41.023Z,101668.88
2023-10-08T01:54:13.115Z,101659.47
2023-10-08T01:56:43.508Z,101661.44
2023-10-08T01:59:15.826Z,101663.00
2023-10-08T02:01:46.975Z,101656.75
2023-10-08T02:04:18.378Z,101663.19
2023-10-08T02:06:48.295Z,101666.72
2023-10-08T02:09:17.045Z,101664.16
2023-10-08T02:11:48.259Z,101650.63
2023-10-08T02:14:17.247Z,101650.22
2023-10-08T02:16:46.102Z,101652.38
2023-10-08T02:19:16.190Z,101654.22
2023-10-08T02:21:47.643Z,101651.13
2023-10-08T02:24:15.908Z,101647.19
2023-10-08T02:26:45.071Z,101655.00
2023-10-08T02:29:13.663Z,101651.00
2023-10-08T02:31:42.193Z,101653.53
2023-10-08T02:34:14.341Z,101656.94
2023-10-08T02:36:44.666Z,101652.25
2023-10-08T02:39:28.059Z,101649.38
2023-10-08T02:42:01.426Z,101651.41
2023-10-08T02:44:30.573Z,101651.41
2023-10-08T02:46:59.236Z,101637.72
2023-10-08T02:49:31.992Z,101633.00
2023-10-08T02:52:00.465Z,101627.75
2023-10-08T02:54:38.283Z,101632.75
2023-10-08T02:57:12.392Z,101633.75
2023-10-08T02:59:44.299Z,101634.06
2023-10-08T03:02:17.822Z,101631.09
2023-10-08T03:04:47.280Z,101631.97
2023-10-08T03:07:35.049Z,101623.44
2023-10-08T03:10:18.773Z,101624.41
2023-10-08T03:12:49.092Z,101622.28
2023-10-08T03:15:39.628Z,101614.88
2023-10-08T03:18:17.255Z,101613.47
2023-10-08T03:20:47.254Z,101615.84
2023-10-08T03:23:35.117Z,101609.75
2023-10-08T03:26:33.927Z,101608.91
2023-10-08T03:29:07.257Z,101616.88
2023-10-08T03:31:48.251Z,101624.13
2023-10-08T03:34:21.287Z,101620.59
2023-10-08T03:36:52.318Z,101621.28
2023-10-08T03:39:21.061Z,101628.25
2023-10-08T03:42:07.788Z,101635.50
2023-10-08T03:44:39.110Z,101630.78
2023-10-08T03:47:12.897Z,101631.50
2023-10-08T03:49:48.033Z,101621.25
2023-10-08T03:52:16.833Z,101624.47
2023-10-08T03:54:50.112Z,101626.34
2023-10-08T03:57:27.315Z,101627.75
2023-10-08T04:00:00.649Z,101626.59
2023-10-08T04:02:41.660Z,101630.41
2023-10-08T04:05:23.734Z,101624.69
2023-10-08T04:08:00.677Z,101628.41
2023-10-08T04:10:43.121Z,101625.53
2023-10-08T04:13:11.595Z,101634.91
2023-10-08T04:15:43.978Z,101632.63
2023-10-08T04:18:14.930Z,101633.59
2023-10-08T04:21:02.132Z,101636.63
2023-10-08T04:23:31.116Z,101637.94
2023-10-08T04:26:00.766Z,101634.38
2023-10-08T04:28:36.138Z,101632.34
2023-10-08T04:31:16.887Z,101627.00
2023-10-08T04:33:46.621Z,101630.16
2023-10-08T04:36:19.590Z,101629.88
2023-10-08T04:38:56.264Z,101627.50
2023-10-08T04:41:29.645Z,101631.19
2023-10-08T04:43:58.198Z,101622.22
2023-10-08T04:46:48.656Z,101624.41
2023-10-08T04:49:30.643Z,101625.69
2023-10-08T04:52:15.740Z,101622.13
2023-10-08T04:54:52.853Z,101616.72
2023-10-08T04:57:27.565Z,101605.19
2023-10-08T04:59:59.493Z,101600.09
2023-10-08T05:02:50.902Z,101603.63
2023-10-08T05:05:19.341Z,101610.22
2023-10-08T05:07:48.119Z,101603.25
2023-10-08T17:20:12.609Z,101423.88
2023-10-08T17:22:41.477Z,101426.81
2023-10-08T17:25:11.669Z,101428.50
2023-10-08T17:27:46.793Z,101425.13
2023-10-08T17:30:21.173Z,101435.47
2023-10-08T17:32:51.662Z,101431.00
2023-10-08T17:35:20.103Z,101442.59
2023-10-08T17:37:49.269Z,101444.28
2023-10-08T17:40:18.076Z,101445.97
2023-10-08T17:42:48.382Z,101442.59
2023-10-08T17:45:17.177Z,101445.13
2023-10-08T17:47:47.473Z,101446.16
2023-10-08T17:50:17.537Z,101437.69
2023-10-08T17:52:48.330Z,101448.41
2023-10-08T17:55:19.293Z,101453.66
2023-10-08T17:57:49.345Z,101455.13
2023-10-08T18:00:22.783Z,101444.56
2023-10-08T18:02:52.020Z,101451.25
2023-10-08T18:05:22.512Z,101451.69
2023-10-08T18:07:54.116Z,101445.97
2023-10-08T18:10:25.289Z,101445.09
2023-10-08T18:12:54.259Z,101447.16
2023-10-08T18:15:25.203Z,101452.97
2023-10-08T18:17:54.136Z,101453.53
2023-10-08T18:20:30.852Z,101452.41
2023-10-08T18:23:01.249Z,101464.28
2023-10-08T18:25:33.552Z,101466.50
2023-10-08T18:28:04.754Z,101463.41
2023-10-08T18:30:33.866Z,101471.09
2023-10-08T18:33:02.596Z,101472.09
2023-10-08T18:35:32.647Z,101472.88
2023-10-08T18:38:02.273Z,101472.78
2023-10-08T18:40:33.836Z,101478.47
2023-10-08T18:43:02.936Z,101465.66
2023-10-08T18:45:31.236Z,101471.50
2023-10-08T18:48:00.399Z,101465.31
2023-10-08T18:50:29.390Z,101473.78
2023-10-08T18:52:58.234Z,101472.84
2023-10-08T18:55:39.114Z,101475.78
2023-10-08T18:58:19.309Z,101485.00
2023-10-08T19:00:49.830Z,101489.88
2023-10-08T19:03:19.755Z,101494.31
2023-10-08T19:05:48.865Z,101500.41
2023-10-08T19:08:18.033Z,101499.34
2023-10-08T19:10:47.586Z,101504.66
2023-10-08T19:13:17.279Z,101503.81
2023-10-08T19:15:46.838Z,101499.94
2023-10-08T19:18:16.600Z,101507.75
2023-10-08T19:20:47.220Z,101502.66
2023-10-08T19:23:16.265Z,101499.41
2023-10-08T19:25:55.261Z,101505.19
2023-10-08T19:28:25.675Z,101501.56
2023-10-08T19:30:56.237Z,101500.91
2023-10-08T19:33:24.980Z,101496.94
2023-10-08T19:35:58.124Z,101494.03
2023-10-08T19:38:27.128Z,101493.59
2023-10-08T19:40:56.136Z,101500.81
2023-10-08T19:43:25.555Z,101493.78
2023-10-08T19:45:58.866Z,101497.25
2023-10-08T19:48:29.482Z,101503.66
2023-10-08T19:50:58.438Z,101496.06
2023-10-08T19:53:27.336Z,101493.41
2023-10-08T19:55:55.997Z,101507.13
2023-10-08T19:58:25.950Z,101512.66
2023-10-08T20:00:54.826Z,101521.41
2023-10-08T20:03:23.455Z,101520.63
2023-10-08T20:05:52.010Z,101514.59
2023-10-08T20:08:21.996Z,101520.69
2023-10-08T20:10:50.887Z,101518.72
2023-10-08T20:13:20.431Z,101523.50
2023-10-08T20:15:58.519Z,101514.16
2023-10-08T20:18:28.738Z,101525.63
2023-10-08T20:20:57.136Z,101510.88
2023-10-08T20:23:31.045Z,101518.56
2023-10-08T20:25:59.653Z,101520.81
2023-10-08T20:28:29.681Z,101527.81
2023-10-08T20:30:58.770Z,101523.97
2023-10-08T20:33:27.374Z,101528.66
2023-10-08T20:35:56.105Z,101539.09
2023-10-08T20:38:25.609Z,101540.28
2023-10-08T20:40:54.340Z,101550.16
2023-10-08T20:43:23.477Z,101546.94
2023-10-08T20:45:52.094Z,101541.38
2023-10-08T20:48:21.332Z,101536.84
2023-10-08T20:50:51.297Z,101536.72
2023-10-08T20:53:19.983Z,101536.22
2023-10-08T20:55:48.810Z,101542.88
2023-10-08T20:58:19.371Z,101537.59
2023-10-08T21:00:48.839Z,101541.69
2023-10-08T21:03:18.241Z,101542.91
2023-10-08T21:05:48.674Z,101538.00
2023-10-08T21:08:18.049Z,101538.16
2023-10-08T21:10:59.592Z,101542.94
2023-10-08T21:13:31.562Z,101551.28
2023-10-08T21:16:02.176Z,101542.44
2023-10-08T21:18:31.987Z,101553.88
2023-10-08T21:21:05.318Z,101555.75
2023-10-08T21:23:34.739Z,101566.78
2023-10-08T21:26:03.592Z,101555.59
2023-10-08T21:28:32.380Z,101553.59
2023-10-08T21:31:08.256Z,101550.53
2023-10-08T21:33:36.837Z,101557.81
2023-10-08T21:36:05.508Z,101562.59
2023-10-08T21:38:34.735Z,101554.78
2023-10-08T21:41:03.345Z,101556.66
2023-10-08T21:43:32.085Z,101558.06
2023-10-08T21:46:01.583Z,101554.38
2023-10-08T21:48:30.488Z,101548.75
2023-10-08T21:51:03.621Z,101557.44
2023-10-08T21:53:32.864Z,101549.16
2023-10-08T21:56:08.435Z,101556.28
2023-10-08T21:58:37.377Z,101556.13
2023-10-08T22:01:11.692Z,101557.16
2023-10-08T22:03:42.695Z,101549.53
2023-10-08T22:06:15.487Z,101550.19
2023-10-08T22:08:49.866Z,101548.00
2023-10-08T22:11:18.616Z,101539.34
2023-10-08T22:13:46.918Z,101546.66
2023-10-08T22:16:21.184Z,101553.09
2023-10-08T22:18:58.594Z,101550.75
2023-10-08T22:21:30.228Z,101551.75
2023-10-08T22:23:58.731Z,101550.72
2023-10-08T22:26:27.578Z,101553.09
2023-10-08T22:28:58.955Z,101561.44
2023-10-08T22:31:29.895Z,101558.50
2023-10-08T22:34:06.097Z,101562.94
2023-10-08T22:36:48.713Z,101556.63
2023-10-08T22:39:22.433Z,101563.78
2023-10-08T22:41:57.232Z,101555.78
2023-10-08T22:44:27.736Z,101560.38
2023-10-08T22:47:11.680Z,101560.69
2023-10-08T22:49:40.780Z,101560.16
2023-10-08T22:52:11.069Z,101554.91
2023-10-08T22:54:39.937Z,101563.88
2023-10-08T22:57:08.452Z,101563.19
2023-10-08T22:59:37.426Z,101564.53
2023-10-08T23:02:13.142Z,101560.63
2023-10-08T23:04:42.607Z,101573.47
2023-10-08T23:07:12.311Z,101571.53
2023-10-08T23:09:41.473Z,101571.91
2023-10-08T23:12:11.717Z,101559.66
2023-10-08T23:14:40.473Z,101560.50
2023-10-08T23:17:15.751Z,101549.19
2023-10-08T23:19:44.611Z,101547.81
2023-10-08T23:22:13.235Z,101542.19
2023-10-08T23:24:44.501Z,101549.31
2023-10-08T23:27:14.093Z,101558.81
2023-10-08T23:29:42.193Z,101563.69
2023-10-08T23:32:10.792Z,101568.38
2023-10-08T23:34:39.607Z,101558.22
2023-10-08T23:37:23.429Z,101558.22
2023-10-08T23:39:51.712Z,101552.97
2023-10-08T23:42:33.582Z,101551.09
2023-10-08T23:45:07.085Z,101549.91
2023-10-08T23:47:38.691Z,101554.69
2023-10-08T23:50:15.641Z,101559.59
2023-10-08T23:52:49.230Z,101562.75
2023-10-08T23:55:20.316Z,101564.06
2023-10-08T23:58:00.680Z,101553.31
